createdAt,value
2019-05-21T00:02:44.102Z,14.9
2019-05-21T00:07:31.345Z,14.9
2019-05-21T00:12:18.442Z,14.9
2019-05-21T00:17:05.953Z,14.9
2019-05-21T00:22:40.515Z,14.9
2019-05-21T00:27:27.994Z,14.9
2019-05-21T00:32:15.299Z,14.9
2019-05-21T00:37:02.598Z,14.8
2019-05-21T00:41:50.007Z,14.8
2019-05-21T00:51:49.691Z,14.8
2019-05-21T00:56:36.749Z,14.7
2019-05-21T01:01:23.567Z,14.7
2019-05-21T01:06:11.526Z,14.7
2019-05-21T01:10:58.661Z,14.7
2019-05-21T01:20:27.266Z,14.7
2019-05-21T01:25:16.269Z,14.6
2019-05-21T01:30:03.620Z,14.6
2019-05-21T01:34:50.455Z,14.6
2019-05-21T01:39:37.941Z,14.6
2019-05-21T01:47:02.537Z,14.6
2019-05-21T01:51:49.595Z,14.5
2019-05-21T01:56:36.972Z,14.5
2019-05-21T02:01:24.312Z,14.5
2019-05-21T02:06:11.443Z,14.5
2019-05-21T02:13:20.353Z,14.5
2019-05-21T02:18:08.171Z,14.5
2019-05-21T02:22:55.451Z,14.5
2019-05-21T02:27:42.859Z,14.5
2019-05-21T02:32:30.848Z,14.5
2019-05-21T02:38:09.076Z,14.5
2019-05-21T02:42:56.120Z,14.5
2019-05-21T02:47:43.607Z,14.5
2019-05-21T02:52:31.137Z,14.5
2019-05-21T02:57:17.848Z,14.5
2019-05-21T03:02:53.715Z,14.5
2019-05-21T03:07:41.604Z,14.4
2019-05-21T03:12:28.633Z,14.4
2019-05-21T03:17:15.876Z,14.4
2019-05-21T03:22:03.221Z,14.4
2019-05-21T03:27:53.703Z,14.4
2019-05-21T03:32:41.121Z,14.4
2019-05-21T03:37:28.051Z,14.4
2019-05-21T03:42:14.859Z,14.4
2019-05-21T03:47:01.794Z,14.4
2019-05-21T03:52:35.584Z,14.5
2019-05-21T03:57:22.724Z,14.5
2019-05-21T04:02:09.844Z,14.5
2019-05-21T04:06:56.663Z,14.5
2019-05-21T04:11:43.391Z,14.5
2019-05-21T04:17:34.973Z,14.5
2019-05-21T04:22:22.040Z,14.5
2019-05-21T04:27:11.150Z,14.5
2019-05-21T04:31:58.456Z,14.6
2019-05-21T04:36:45.709Z,14.6
2019-05-21T04:42:19.147Z,14.6
2019-05-21T04:47:06.024Z,14.6
2019-05-21T04:51:53.628Z,14.6
2019-05-21T04:56:40.795Z,14.6
2019-05-21T05:01:27.586Z,14.6
2019-05-21T05:07:03.416Z,14.6
2019-05-21T05:11:51.482Z,14.6
2019-05-21T05:16:39.560Z,14.6
2019-05-21T05:21:26.744Z,14.6
2019-05-21T05:26:14.065Z,14.6
2019-05-21T05:31:01.384Z,14.6
2019-05-21T05:36:19.259Z,14.6
2019-05-21T05:41:08.005Z,14.5
2019-05-21T05:45:55.391Z,14.5
2019-05-21T05:50:43.322Z,14.5
2019-05-21T05:55:30.679Z,14.4
2019-05-21T06:00:18.491Z,14.4
2019-05-21T06:05:05.733Z,14.4
2019-05-21T06:09:52.597Z,14.3
2019-05-21T06:15:26.718Z,14.3
2019-05-21T06:20:14.258Z,14.2
2019-05-21T06:25:01.094Z,14.2
2019-05-21T06:29:49.062Z,14.1
2019-05-21T06:34:36.712Z,14
2019-05-21T06:39:23.727Z,14
2019-05-21T06:44:10.586Z,14
2019-05-21T06:48:57.613Z,13.9
2019-05-21T06:53:44.504Z,13.9
2019-05-21T06:58:31.675Z,13.8
2019-05-21T07:03:19.227Z,13.8
2019-05-21T07:08:07.081Z,13.7
2019-05-21T07:12:54.554Z,13.7
2019-05-21T07:17:42.268Z,13.7
2019-05-21T07:22:31.158Z,13.6
2019-05-21T07:27:18.383Z,13.6
2019-05-21T07:32:05.765Z,13.5
2019-05-21T07:36:53.119Z,13.5
2019-05-21T07:41:39.973Z,13.4
2019-05-21T07:46:27.112Z,13.4
2019-05-21T07:51:14.987Z,13.4
2019-05-21T07:56:02.598Z,13.3
2019-05-21T08:00:49.546Z,13.3
2019-05-21T08:05:37.204Z,13.3
2019-05-21T08:10:24.583Z,13.2
2019-05-21T08:15:11.900Z,13.2
2019-05-21T08:20:08.463Z,13.1
2019-05-21T08:24:59.323Z,13.1
2019-05-21T08:29:46.295Z,13
2019-05-21T08:34:34.731Z,13
2019-05-21T08:39:28.865Z,13
2019-05-21T08:44:16.726Z,12.9
2019-05-21T08:49:03.828Z,12.9
2019-05-21T08:53:51.016Z,12.8
2019-05-21T08:58:38.708Z,12.8
2019-05-21T09:03:26.768Z,12.8
2019-05-21T09:08:16.044Z,12.7
2019-05-21T09:13:03.446Z,12.7
2019-05-21T09:17:50.480Z,12.6
2019-05-21T09:22:39.624Z,12.6
2019-05-21T09:27:26.588Z,12.5
2019-05-21T09:32:14.007Z,12.5
2019-05-21T09:37:01.661Z,12.4
2019-05-21T09:41:48.922Z,12.4
2019-05-21T09:46:35.870Z,12.3
2019-05-21T09:51:23.528Z,12.3
2019-05-21T09:56:10.220Z,12.3
2019-05-21T10:00:58.014Z,12.2
2019-05-21T10:05:45.078Z,12.2
2019-05-21T10:10:33.612Z,12.1
2019-05-21T10:15:21.890Z,12.1
2019-05-21T10:20:10.321Z,12
2019-05-21T10:24:57.121Z,12
2019-05-21T10:29:44.236Z,11.9
2019-05-21T10:34:31.466Z,11.9
2019-05-21T10:39:18.924Z,11.9
2019-05-21T10:44:06.280Z,11.8
2019-05-21T10:48:53.808Z,11.8
2019-05-21T10:53:40.693Z,11.8
2019-05-21T10:58:28.750Z,11.7
2019-05-21T11:03:15.869Z,11.7
2019-05-21T11:08:22.964Z,11.6
2019-05-21T11:13:11.720Z,11.6
2019-05-21T11:22:54.511Z,11.5
2019-05-21T11:27:42.642Z,11.4
2019-05-21T11:32:29.965Z,11.4
2019-05-21T11:37:16.730Z,11.4
2019-05-21T11:42:03.999Z,11.3
2019-05-21T11:46:51.124Z,11.3
2019-05-21T11:51:38.401Z,11.2
2019-05-21T11:56:25.387Z,11.2
2019-05-21T12:01:12.371Z,11.2
2019-05-21T12:05:59.859Z,11.1
2019-05-21T12:10:46.801Z,11.1
2019-05-21T12:15:33.702Z,11
2019-05-21T12:20:35.225Z,11
2019-05-21T12:25:24.181Z,10.9
2019-05-21T12:30:11.279Z,10.9
2019-05-21T12:34:58.345Z,10.9
2019-05-21T12:39:45.475Z,10.8
2019-05-21T12:44:32.298Z,10.8
2019-05-21T12:49:19.244Z,10.8
2019-05-21T12:54:08.406Z,10.7
2019-05-21T12:58:55.479Z,10.7
2019-05-21T13:03:42.581Z,10.7
2019-05-21T13:08:29.347Z,10.6
2019-05-21T13:13:18.091Z,10.6
2019-05-21T13:18:05.354Z,10.5
2019-05-21T13:22:52.539Z,10.4
2019-05-21T13:27:40.570Z,10.4
2019-05-21T13:32:27.990Z,10.3
2019-05-21T13:37:17.149Z,10.3
2019-05-21T13:42:04.580Z,10.2
2019-05-21T13:46:52.580Z,10.2
2019-05-21T13:51:39.613Z,10.1
2019-05-21T13:56:26.785Z,10.1
2019-05-21T14:01:16.030Z,10
2019-05-21T14:06:04.573Z,10
2019-05-21T14:10:51.877Z,10
2019-05-21T14:15:38.984Z,10
2019-05-21T14:20:25.786Z,9.9
2019-05-21T14:25:12.848Z,9.9
2019-05-21T14:30:00.334Z,9.9
2019-05-21T14:35:00.949Z,9.9
2019-05-21T14:39:49.762Z,9.8
2019-05-21T14:44:37.937Z,9.8
2019-05-21T14:49:25.074Z,9.8
2019-05-21T14:54:25.996Z,9.9
2019-05-21T14:59:13.942Z,9.9
2019-05-21T15:04:00.765Z,9.9
2019-05-21T15:08:48.120Z,9.9
2019-05-21T15:13:35.456Z,9.9
2019-05-21T15:18:22.571Z,9.9
2019-05-21T15:23:09.878Z,9.9
2019-05-21T15:27:56.888Z,10
2019-05-21T15:32:44.803Z,10
2019-05-21T15:37:32.244Z,10
2019-05-21T15:42:20.458Z,10
2019-05-21T15:47:07.447Z,10
2019-05-21T15:51:54.429Z,10
2019-05-21T15:56:41.676Z,10
2019-05-21T16:01:29.464Z,10
2019-05-21T16:06:16.529Z,10
2019-05-21T16:11:03.836Z,10
2019-05-21T16:15:51.368Z,10
2019-05-21T16:20:42.073Z,10
2019-05-21T16:25:30.148Z,10.1
2019-05-21T16:30:17.451Z,10.1
2019-05-21T16:35:04.686Z,10.1
2019-05-21T16:39:52.859Z,10.1
2019-05-21T16:44:40.101Z,10.1
2019-05-21T16:49:27.905Z,10.2
2019-05-21T16:54:14.819Z,10.2
2019-05-21T16:59:01.857Z,10.2
2019-05-21T17:03:59.633Z,10.2
2019-05-21T17:08:49.191Z,10.3
2019-05-21T17:13:37.179Z,10.8
2019-05-21T17:18:24.666Z,10.8
2019-05-21T17:23:12.532Z,10.9
2019-05-21T17:28:00.872Z,10.9
2019-05-21T17:32:48.140Z,10.9
2019-05-21T17:37:35.934Z,10.9
2019-05-21T17:42:23.237Z,11
2019-05-21T17:47:11.286Z,11.1
2019-05-21T17:51:59.317Z,11.1
2019-05-21T17:56:46.728Z,11.1
2019-05-21T18:01:34.773Z,11.1
2019-05-21T18:06:22.081Z,11.2
2019-05-21T18:11:09.008Z,11.2
2019-05-21T18:16:28.039Z,11.2
2019-05-21T18:21:15.499Z,11.3
2019-05-21T18:26:02.403Z,11.3
2019-05-21T18:30:49.506Z,11.3
2019-05-21T18:39:31.969Z,11.4
2019-05-21T18:44:19.416Z,11.4
2019-05-21T18:49:06.270Z,11.4
2019-05-21T18:53:53.165Z,11.4
2019-05-21T19:01:33.726Z,11.5
2019-05-21T19:06:20.816Z,11.5
2019-05-21T19:11:10.067Z,11.5
2019-05-21T19:15:57.203Z,11.5
2019-05-21T19:23:19.762Z,11.6
2019-05-21T19:28:07.617Z,11.6
2019-05-21T19:32:55.136Z,11.6
2019-05-21T19:37:42.604Z,11.6
2019-05-21T19:45:34.594Z,11.7
2019-05-21T19:50:21.719Z,11.7
2019-05-21T19:55:08.910Z,11.7
2019-05-21T19:59:55.896Z,11.8
2019-05-21T20:07:34.118Z,11.8
2019-05-21T20:12:21.548Z,11.8
2019-05-21T20:17:08.862Z,11.8
2019-05-21T20:21:55.748Z,11.8
2019-05-21T20:28:01.630Z,11.8
2019-05-21T20:32:50.423Z,11.8
2019-05-21T20:37:37.777Z,11.9
2019-05-21T20:42:24.537Z,11.9
2019-05-21T20:48:47.361Z,11.9
2019-05-21T20:53:34.741Z,11.9
2019-05-21T20:58:21.619Z,11.9
2019-05-21T21:03:09.443Z,12
2019-05-21T21:10:49.328Z,12
2019-05-21T21:15:37.944Z,12
2019-05-21T21:20:24.982Z,12
2019-05-21T21:25:12.372Z,12
2019-05-21T21:30:50.676Z,12.1
2019-05-21T21:35:37.931Z,12.1
2019-05-21T21:40:25.137Z,12.1
2019-05-21T21:45:12.331Z,12.1
2019-05-21T21:52:34.820Z,12.2
2019-05-21T21:57:21.639Z,12.2
2019-05-21T22:02:08.672Z,12.2
2019-05-21T22:06:56.276Z,12.2
2019-05-21T22:14:52.216Z,12.3
2019-05-21T22:19:39.731Z,12.3
2019-05-21T22:24:26.532Z,12.3
2019-05-21T22:29:13.630Z,12.3
2019-05-21T22:36:51.713Z,12.3
2019-05-21T22:41:39.319Z,12.4
2019-05-21T22:46:28.097Z,12.4
2019-05-21T22:51:15.592Z,12.4
2019-05-21T22:58:54.368Z,12.4
2019-05-21T23:03:41.558Z,12.4
2019-05-21T23:08:28.674Z,12.4
2019-05-21T23:13:16.005Z,12.5
2019-05-21T23:19:05.087Z,12.5
2019-05-21T23:23:52.275Z,12.5
2019-05-21T23:28:39.466Z,12.5
2019-05-21T23:33:27.277Z,12.6
2019-05-21T23:41:23.194Z,12.6
2019-05-21T23:46:11.492Z,12.6
2019-05-21T23:50:58.452Z,12.6
2019-05-21T23:55:45.935Z,12.6
